createdAt,value
2023-04-28T00:00:51.156Z,18.15
2023-04-28T00:03:18.034Z,19.52
2023-04-28T00:05:44.785Z,19.27
2023-04-28T00:08:11.324Z,17.77
2023-04-28T00:10:37.796Z,19.30
2023-04-28T00:13:04.278Z,21.52
2023-04-28T00:15:30.849Z,18.38
2023-04-28T00:17:57.306Z,18.65
2023-04-28T00:20:23.858Z,21.92
2023-04-28T00:22:50.631Z,19.55
2023-04-28T00:25:17.240Z,23.20
2023-04-28T00:27:43.723Z,17.42
2023-04-28T00:30:10.900Z,18.77
2023-04-28T00:32:37.476Z,18.15
2023-04-28T00:35:04.179Z,20.83
2023-04-28T00:37:30.804Z,18.50
2023-04-28T00:39:57.495Z,18.50
2023-04-28T00:42:24.304Z,20.73
2023-04-28T00:44:50.808Z,21.58
2023-04-28T00:47:18.269Z,16.85
2023-04-28T00:49:45.534Z,19.38
2023-04-28T00:52:12.001Z,23.38
2023-04-28T00:54:38.681Z,18.90
2023-04-28T00:57:05.221Z,18.27
2023-04-28T00:59:31.981Z,26.08
2023-04-28T01:02:00.192Z,20.08
2023-04-28T01:04:29.136Z,19.75
2023-04-28T01:06:56.912Z,18.02
2023-04-28T01:09:23.358Z,19.00
2023-04-28T01:11:49.783Z,19.73
2023-04-28T01:14:16.382Z,21.40
2023-04-28T01:16:43.432Z,20.15
2023-04-28T01:19:20.211Z,19.17
2023-04-28T01:21:46.637Z,20.85
2023-04-28T01:24:13.355Z,22.58
2023-04-28T01:26:40.065Z,22.42
2023-04-28T01:29:06.648Z,23.45
2023-04-28T01:31:33.150Z,22.55
2023-04-28T01:33:59.647Z,18.85
2023-04-28T01:36:27.419Z,21.73
2023-04-28T01:38:54.484Z,21.33
2023-04-28T01:41:21.206Z,21.85
2023-04-28T01:43:47.714Z,23.02
2023-04-28T01:46:14.199Z,22.83
2023-04-28T01:48:40.723Z,20.55
2023-04-28T01:51:07.249Z,22.70
2023-04-28T01:53:34.065Z,21.02
2023-04-28T01:56:19.251Z,22.77
2023-04-28T01:58:46.082Z,21.60
2023-04-28T02:01:12.819Z,20.67
2023-04-28T02:03:39.435Z,21.35
2023-04-28T02:06:06.046Z,24.80
2023-04-28T02:08:32.594Z,21.33
2023-04-28T02:10:59.038Z,25.85
2023-04-28T02:13:25.464Z,23.23
2023-04-28T02:15:51.962Z,21.25
2023-04-28T02:18:18.424Z,21.45
2023-04-28T02:20:44.868Z,26.48
2023-04-28T02:23:11.319Z,21.45
2023-04-28T02:25:37.812Z,24.42
2023-04-28T02:28:04.382Z,22.90
2023-04-28T02:30:30.963Z,22.15
2023-04-28T02:32:57.480Z,24.38
2023-04-28T02:35:23.980Z,27.00
2023-04-28T02:37:50.779Z,22.95
2023-04-28T02:40:17.392Z,25.83
2023-04-28T02:42:43.845Z,24.13
2023-04-28T02:45:10.822Z,24.63
2023-04-28T02:47:37.293Z,23.45
2023-04-28T02:50:04.335Z,24.75
2023-04-28T02:52:30.932Z,26.05
2023-04-28T02:54:57.598Z,22.38
2023-04-28T02:57:24.371Z,21.50
2023-04-28T02:59:50.932Z,26.08
2023-04-28T03:02:17.518Z,27.00
2023-04-28T03:04:44.112Z,27.73
2023-04-28T03:07:10.783Z,26.42
2023-04-28T03:09:37.212Z,24.38
2023-04-28T03:12:03.887Z,28.63
2023-04-28T03:14:30.768Z,29.00
2023-04-28T03:16:57.843Z,26.63
2023-04-28T03:19:24.344Z,26.65
2023-04-28T03:21:50.842Z,26.85
2023-04-28T03:24:17.557Z,29.05
2023-04-28T03:26:44.469Z,26.33
2023-04-28T03:29:10.960Z,29.92
2023-04-28T03:31:37.429Z,25.60
2023-04-28T03:34:04.466Z,29.55
2023-04-28T03:36:32.074Z,25.92
2023-04-28T03:38:58.580Z,23.73
2023-04-28T03:41:25.043Z,28.92
2023-04-28T03:43:52.002Z,30.90
2023-04-28T03:46:18.557Z,28.30
2023-04-28T03:48:46.137Z,25.73
2023-04-28T03:51:12.670Z,26.02
2023-04-28T03:53:39.157Z,33.70
2023-04-28T03:56:06.194Z,29.50
2023-04-28T03:58:32.693Z,31.83
2023-04-28T04:01:00.924Z,28.63
2023-04-28T04:03:27.689Z,29.08
2023-04-28T04:05:55.666Z,34.00
2023-04-28T04:08:22.260Z,25.58
2023-04-28T04:10:48.715Z,32.80
2023-04-28T04:13:15.251Z,31.23
2023-04-28T04:15:41.743Z,30.02
2023-04-28T04:18:08.362Z,29.33
2023-04-28T04:20:34.869Z,31.88
2023-04-28T04:23:02.017Z,31.30
2023-04-28T04:25:28.593Z,28.63
2023-04-28T04:27:55.121Z,30.90
2023-04-28T04:30:21.715Z,30.73
2023-04-28T04:32:48.494Z,35.10
2023-04-28T04:35:15.052Z,29.73
2023-04-28T04:37:41.526Z,29.63
2023-04-28T04:40:08.864Z,31.67
2023-04-28T04:42:35.554Z,37.17
2023-04-28T04:45:02.074Z,30.50
2023-04-28T04:47:28.696Z,29.73
2023-04-28T04:49:55.247Z,35.08
2023-04-28T04:52:21.724Z,32.53
2023-04-28T04:54:48.251Z,34.55
2023-04-28T04:57:14.753Z,33.35
2023-04-28T04:59:41.467Z,34.22
2023-04-28T05:02:08.161Z,36.78
2023-04-28T05:04:34.883Z,32.80
2023-04-28T05:07:01.399Z,33.55
2023-04-28T05:09:29.044Z,36.63
2023-04-28T05:11:56.026Z,34.15
2023-04-28T05:14:22.453Z,28.90
2023-04-28T05:16:49.422Z,30.88
2023-04-28T05:19:16.327Z,31.50
2023-04-28T05:21:42.892Z,35.67
2023-04-28T05:24:09.316Z,30.52
2023-04-28T05:26:36.718Z,35.35
2023-04-28T05:29:03.184Z,30.08
2023-04-28T05:31:29.692Z,34.15
2023-04-28T05:33:56.228Z,36.42
2023-04-28T05:36:22.690Z,32.80
2023-04-28T05:38:49.245Z,32.95
2023-04-28T05:41:15.905Z,29.17
2023-04-28T05:43:42.653Z,32.10
2023-04-28T05:46:18.146Z,34.40
2023-04-28T05:48:48.710Z,31.40
2023-04-28T05:51:15.171Z,30.40
2023-04-28T05:53:41.871Z,37.15
2023-04-28T05:56:08.421Z,33.00
2023-04-28T05:58:35.074Z,34.35
2023-04-28T06:01:01.571Z,32.03
2023-04-28T06:03:28.331Z,37.47
2023-04-28T06:05:55.047Z,35.13
2023-04-28T06:08:21.547Z,39.38
2023-04-28T06:10:48.017Z,33.90
2023-04-28T06:13:14.818Z,35.50
2023-04-28T06:15:41.521Z,38.65
2023-04-28T06:18:09.709Z,34.65
2023-04-28T06:20:36.355Z,33.38
2023-04-28T06:23:03.389Z,35.40
2023-04-28T06:25:29.920Z,34.78
2023-04-28T06:27:56.544Z,33.63
2023-04-28T06:30:24.120Z,35.35
2023-04-28T06:32:50.828Z,35.22
2023-04-28T06:35:17.338Z,32.05
2023-04-28T06:37:43.869Z,32.72
2023-04-28T06:40:11.240Z,35.97
2023-04-28T06:42:37.728Z,32.50
2023-04-28T06:45:04.395Z,36.45
2023-04-28T06:47:30.948Z,37.42
2023-04-28T06:49:57.526Z,35.80
2023-04-28T06:52:33.076Z,32.13
2023-04-28T06:55:07.602Z,32.55
2023-04-28T06:57:34.174Z,32.92
2023-04-28T07:00:00.958Z,37.03
2023-04-28T07:02:27.498Z,33.10
2023-04-28T07:04:54.184Z,32.63
2023-04-28T07:07:20.749Z,35.65
2023-04-28T07:09:47.265Z,37.30
2023-04-28T07:12:13.771Z,34.55
2023-04-28T07:14:40.465Z,32.30
2023-04-28T07:17:06.942Z,28.73
2023-04-28T07:19:33.415Z,29.08
2023-04-28T07:21:59.869Z,29.95
2023-04-28T07:24:27.298Z,30.30
2023-04-28T07:26:53.886Z,26.00
2023-04-28T07:29:20.463Z,28.98
2023-04-28T07:31:46.973Z,25.55
2023-04-28T07:34:13.569Z,26.52
2023-04-28T07:36:40.439Z,25.42
2023-04-28T07:39:07.108Z,24.77
2023-04-28T07:41:40.444Z,32.53
2023-04-28T07:44:10.541Z,21.77
2023-04-28T07:46:38.030Z,34.22
2023-04-28T07:49:04.878Z,24.95
2023-04-28T07:51:31.412Z,22.92
2023-04-28T07:53:58.388Z,24.08
2023-04-28T07:56:25.798Z,23.60
2023-04-28T07:58:52.672Z,22.90
2023-04-28T08:01:19.201Z,22.52
2023-04-28T08:03:46.310Z,19.85
2023-04-28T08:06:13.317Z,26.17
2023-04-28T08:08:40.459Z,23.13
2023-04-28T08:11:07.737Z,25.02
2023-04-28T08:13:34.648Z,22.73
2023-04-28T08:16:01.253Z,20.77
2023-04-28T08:18:28.896Z,18.38
2023-04-28T08:20:55.774Z,23.55
2023-04-28T08:23:22.339Z,23.80
2023-04-28T08:25:50.245Z,19.98
2023-04-28T08:28:16.893Z,18.90
2023-04-28T08:30:43.365Z,22.60
2023-04-28T08:33:09.873Z,17.45
2023-04-28T08:35:36.366Z,19.90
2023-04-28T08:38:02.838Z,19.60
2023-04-28T08:40:31.409Z,21.25
2023-04-28T08:42:58.502Z,21.48
2023-04-28T08:45:27.859Z,18.20
2023-04-28T08:47:56.877Z,17.13
2023-04-28T08:50:25.880Z,20.83
2023-04-28T08:52:52.607Z,12.90
2023-04-28T08:55:19.591Z,6.90
2023-04-28T08:57:49.863Z,19.23
2023-04-28T09:00:17.728Z,16.90
2023-04-28T09:02:44.430Z,12.18
2023-04-28T09:05:12.452Z,5.88
2023-04-28T09:07:39.606Z,11.50
2023-04-28T09:10:23.871Z,8.52
2023-04-28T09:12:55.213Z,18.48
2023-04-28T09:15:31.842Z,17.38
2023-04-28T09:18:01.162Z,15.20
2023-04-28T09:20:30.427Z,9.80
2023-04-28T09:23:13.613Z,15.30
2023-04-28T09:25:40.151Z,18.13
2023-04-28T09:28:22.317Z,12.55
2023-04-28T09:30:49.089Z,11.48
2023-04-28T09:33:16.279Z,15.73
2023-04-28T09:35:45.783Z,18.17
2023-04-28T09:38:12.358Z,12.30
2023-04-28T09:40:51.858Z,15.43
2023-04-28T09:43:26.728Z,10.32
2023-04-28T09:45:54.197Z,9.15
2023-04-28T09:48:47.177Z,13.48
2023-04-28T09:51:21.161Z,15.35
2023-04-28T09:53:47.703Z,11.07
2023-04-28T09:56:14.488Z,16.23
2023-04-28T09:58:44.025Z,11.38
2023-04-28T10:01:13.386Z,24.52
2023-04-28T10:03:43.218Z,15.27
2023-04-28T10:06:10.128Z,13.07
2023-04-28T10:08:36.649Z,17.70
2023-04-28T10:11:04.491Z,20.02
2023-04-28T10:13:31.198Z,16.42
2023-04-28T10:15:58.606Z,12.68
2023-04-28T10:18:25.777Z,13.88
2023-04-28T10:20:58.414Z,15.98
2023-04-28T10:23:47.198Z,17.65
2023-04-28T10:26:15.391Z,16.60
2023-04-28T10:28:49.791Z,18.55
2023-04-28T10:31:18.743Z,18.73
2023-04-28T10:33:45.316Z,17.42
2023-04-28T10:36:11.973Z,17.52
2023-04-28T10:39:09.663Z,16.02
2023-04-28T10:41:36.322Z,6.45
2023-04-28T10:44:28.731Z,15.45
2023-04-28T10:47:04.851Z,6.80
2023-04-28T10:49:57.670Z,9.57
2023-04-28T10:52:33.550Z,11.55
2023-04-28T10:55:37.326Z,11.25
2023-04-28T10:58:16.201Z,18.77
2023-04-28T11:00:47.901Z,16.15
2023-04-28T11:03:46.680Z,20.55
2023-04-28T11:06:27.197Z,18.13
2023-04-28T11:08:55.656Z,10.20
2023-04-28T11:11:22.866Z,6.05
2023-04-28T11:13:50.112Z,16.50
2023-04-28T11:16:19.600Z,8.98
2023-04-28T11:18:55.956Z,24.13
2023-04-28T11:21:24.259Z,23.10
2023-04-28T11:23:51.071Z,24.83
2023-04-28T11:26:19.332Z,12.57
2023-04-28T11:28:52.959Z,22.02
2023-04-28T11:31:24.242Z,16.45
2023-04-28T11:34:05.221Z,11.15
2023-04-28T11:36:35.426Z,12.68
2023-04-28T11:39:07.784Z,16.63
2023-04-28T11:41:39.260Z,19.77
2023-04-28T11:44:16.380Z,22.13
2023-04-28T11:46:50.683Z,21.55
2023-04-28T11:49:18.866Z,7.67
2023-04-28T11:51:47.009Z,20.92
2023-04-28T11:54:14.927Z,23.63
2023-04-28T11:56:42.779Z,22.02
2023-04-28T11:59:11.311Z,20.75
2023-04-28T12:02:02.917Z,25.13
2023-04-28T12:04:43.530Z,17.85
2023-04-28T12:07:14.111Z,21.42
2023-04-28T12:09:44.633Z,24.80
2023-04-28T12:12:18.528Z,21.92
2023-04-28T12:15:07.389Z,16.98
2023-04-28T12:17:36.363Z,30.85
2023-04-28T12:20:06.494Z,16.23
2023-04-28T12:22:47.884Z,24.92
2023-04-28T12:25:17.146Z,35.80
2023-04-28T12:28:07.436Z,36.28
2023-04-28T12:30:38.851Z,31.80
2023-04-28T12:33:05.468Z,23.83
2023-04-28T12:35:33.191Z,36.13
2023-04-28T12:37:59.879Z,28.27
2023-04-28T12:40:26.990Z,35.22
2023-04-28T12:42:53.877Z,31.65
2023-04-28T12:45:20.388Z,22.98
2023-04-28T12:47:48.091Z,33.75
2023-04-28T12:50:14.645Z,37.97
2023-04-28T12:52:41.205Z,9.68
2023-04-28T12:55:08.306Z,36.45
2023-04-28T12:57:38.931Z,18.35
2023-04-28T13:00:07.350Z,38.92
2023-04-28T13:02:34.105Z,34.00
2023-04-28T13:05:01.971Z,36.03
2023-04-28T13:07:28.727Z,38.08
2023-04-28T13:09:55.977Z,32.92
2023-04-28T13:12:23.003Z,33.05
2023-04-28T13:14:49.826Z,33.92
2023-04-28T13:17:16.485Z,21.92
2023-04-28T13:19:43.822Z,32.17
2023-04-28T13:22:10.663Z,29.48
2023-04-28T13:24:37.155Z,34.63
2023-04-28T13:27:04.180Z,31.48
2023-04-28T13:29:30.780Z,30.75
2023-04-28T13:31:57.350Z,29.73
2023-04-28T13:34:23.963Z,19.73
2023-04-28T13:36:53.954Z,27.88
2023-04-28T13:39:21.992Z,21.75
2023-04-28T13:41:49.411Z,23.45
2023-04-28T13:44:16.770Z,24.10
2023-04-28T13:46:43.477Z,21.80
2023-04-28T13:49:10.570Z,17.30
2023-04-28T13:51:37.321Z,17.02
2023-04-28T13:54:04.706Z,17.92
2023-04-28T13:56:32.035Z,18.13
2023-04-28T13:58:58.866Z,15.88
2023-04-28T14:01:25.508Z,16.65
2023-04-28T14:03:52.311Z,12.07
2023-04-28T14:06:19.170Z,18.50
2023-04-28T14:08:45.693Z,14.90
2023-04-28T14:11:12.332Z,13.88
2023-04-28T14:13:38.801Z,17.33
2023-04-28T14:16:05.744Z,15.25
2023-04-28T14:18:33.857Z,14.50
2023-04-28T14:21:02.059Z,17.42
2023-04-28T14:23:28.782Z,10.85
2023-04-28T14:25:56.876Z,18.60
2023-04-28T14:28:23.647Z,16.45
2023-04-28T14:30:50.189Z,15.70
2023-04-28T14:33:16.767Z,18.48
2023-04-28T14:35:43.465Z,19.52
2023-04-28T14:38:10.052Z,18.45
2023-04-28T14:40:36.572Z,17.73
2023-04-28T14:43:03.043Z,18.17
2023-04-28T14:45:29.691Z,16.38
2023-04-28T14:47:56.307Z,15.02
2023-04-28T14:50:22.812Z,16.88
2023-04-28T14:52:49.630Z,16.63
2023-04-28T14:55:16.222Z,18.30
2023-04-28T14:57:42.738Z,12.73
2023-04-28T15:00:09.771Z,11.32
2023-04-28T15:02:36.621Z,17.02
2023-04-28T15:05:03.537Z,16.00
2023-04-28T15:07:31.714Z,16.40
2023-04-28T15:09:59.537Z,14.88
2023-04-28T15:12:26.310Z,14.40
2023-04-28T15:14:53.782Z,14.88
2023-04-28T15:17:23.462Z,13.25
2023-04-28T15:19:49.904Z,14.15
2023-04-28T15:22:16.950Z,14.50
2023-04-28T15:24:43.436Z,14.95
2023-04-28T15:27:10.009Z,14.10
2023-04-28T15:29:36.501Z,12.45
2023-04-28T15:32:03.106Z,14.50
2023-04-28T15:34:29.589Z,12.27
2023-04-28T15:36:56.685Z,15.07
2023-04-28T15:39:25.086Z,9.40
2023-04-28T15:41:52.916Z,15.00
2023-04-28T15:44:19.800Z,13.32
2023-04-28T15:46:46.357Z,16.60
2023-04-28T15:49:16.085Z,18.55
2023-04-28T15:51:42.873Z,17.42
2023-04-28T15:54:09.328Z,13.18
2023-04-28T15:56:35.929Z,14.05
2023-04-28T15:59:02.551Z,13.88
2023-04-28T16:01:29.570Z,6.82
2023-04-28T16:03:56.344Z,9.45
2023-04-28T16:06:23.500Z,6.50
2023-04-28T16:08:49.961Z,12.77
2023-04-28T16:11:19.422Z,14.38
2023-04-28T16:13:45.900Z,10.48
2023-04-28T16:16:12.665Z,14.15
2023-04-28T16:18:39.413Z,12.32
2023-04-28T16:21:06.415Z,13.00
2023-04-28T16:23:33.068Z,11.05
2023-04-28T16:25:59.559Z,10.35
2023-04-28T16:28:27.020Z,8.27
2023-04-28T16:30:53.609Z,12.32
2023-04-28T16:33:20.400Z,9.82
2023-04-28T16:35:54.254Z,12.38
2023-04-28T16:38:21.439Z,11.25
2023-04-28T16:40:47.959Z,9.98
2023-04-28T16:43:14.583Z,7.50
2023-04-28T16:45:41.315Z,10.25
2023-04-28T16:48:08.008Z,10.85
2023-04-28T16:50:34.544Z,11.07
2023-04-28T16:53:01.232Z,10.68
2023-04-28T16:55:27.818Z,7.75
2023-04-28T16:57:54.357Z,11.38
2023-04-28T17:00:21.311Z,10.57
2023-04-28T17:02:47.894Z,14.00
2023-04-28T17:05:14.554Z,9.40
2023-04-28T17:07:41.208Z,10.20
2023-04-28T17:10:08.308Z,9.60
2023-04-28T17:12:34.841Z,10.98
2023-04-28T17:15:01.449Z,12.70
2023-04-28T17:17:29.174Z,10.40
2023-04-28T17:19:56.861Z,15.80
2023-04-28T17:22:23.346Z,9.52
2023-04-28T17:24:49.799Z,6.75
2023-04-28T17:27:16.291Z,7.45
2023-04-28T17:29:43.503Z,9.85
2023-04-28T17:32:11.022Z,12.00
2023-04-28T17:34:37.699Z,11.57
2023-04-28T17:37:04.194Z,9.52
2023-04-28T17:39:30.724Z,10.40
2023-04-28T17:41:58.535Z,8.02
2023-04-28T17:44:25.439Z,8.05
2023-04-28T17:46:51.972Z,9.13
2023-04-28T17:49:18.747Z,11.43
2023-04-28T17:51:45.223Z,12.23
2023-04-28T17:54:11.790Z,10.68
2023-04-28T17:56:39.243Z,11.23
2023-04-28T17:59:06.334Z,12.20
2023-04-28T18:01:36.775Z,11.57
2023-04-28T18:04:03.337Z,13.48
2023-04-28T18:06:29.874Z,12.15
2023-04-28T18:08:56.377Z,14.88
2023-04-28T18:11:23.373Z,14.02
2023-04-28T18:13:49.885Z,13.52
2023-04-28T18:16:16.350Z,13.93
2023-04-28T18:18:42.853Z,13.13
2023-04-28T18:21:09.592Z,10.40
2023-04-28T18:23:38.753Z,14.10
2023-04-28T18:26:05.343Z,12.95
2023-04-28T18:28:33.822Z,14.75
2023-04-28T18:31:05.429Z,15.95
2023-04-28T18:33:32.706Z,14.25
2023-04-28T18:36:00.840Z,12.82
2023-04-28T18:38:27.520Z,20.58
2023-04-28T18:40:53.983Z,12.98
2023-04-28T18:43:21.320Z,13.10
2023-04-28T18:45:49.016Z,17.13
2023-04-28T18:48:15.596Z,16.15
2023-04-28T18:50:42.589Z,4.50
2023-04-28T18:53:10.338Z,6.30
2023-04-28T18:55:37.040Z,11.38
2023-04-28T18:58:04.032Z,6.10
2023-04-28T19:00:31.046Z,18.83
2023-04-28T19:02:57.883Z,8.40
2023-04-28T19:05:24.820Z,6.90
2023-04-28T19:07:51.483Z,23.95
2023-04-28T19:10:18.047Z,6.82
2023-04-28T19:12:44.532Z,14.20
2023-04-28T19:15:11.044Z,24.45
2023-04-28T19:17:37.551Z,16.50
2023-04-28T19:20:04.384Z,25.17
2023-04-28T19:22:35.020Z,8.38
2023-04-28T19:25:02.450Z,25.30
2023-04-28T19:27:31.276Z,24.60
2023-04-28T19:29:59.067Z,25.73
2023-04-28T19:32:25.659Z,23.92
2023-04-28T19:34:52.841Z,24.13
2023-04-28T19:37:20.077Z,17.85
2023-04-28T19:39:47.332Z,27.15
2023-04-28T19:42:13.866Z,27.50
2023-04-28T19:44:40.415Z,24.52
2023-04-28T19:47:07.458Z,24.02
2023-04-28T19:49:35.127Z,8.23
2023-04-28T19:52:01.691Z,18.10
2023-04-28T19:54:28.293Z,24.92
2023-04-28T19:56:55.524Z,28.55
2023-04-28T19:59:22.499Z,26.73
2023-04-28T20:01:49.976Z,19.48
2023-04-28T20:04:16.735Z,27.85
2023-04-28T20:06:43.454Z,29.20
2023-04-28T20:09:10.266Z,11.13
2023-04-28T20:11:37.299Z,21.25
2023-04-28T20:14:03.811Z,24.80
2023-04-28T20:16:30.375Z,27.75
2023-04-28T20:18:56.850Z,26.27
2023-04-28T20:21:23.341Z,27.95
2023-04-28T20:23:50.639Z,30.05
2023-04-28T20:26:17.123Z,10.00
2023-04-28T20:28:46.470Z,22.75
2023-04-28T20:31:13.704Z,28.08
2023-04-28T20:33:40.295Z,23.40
2023-04-28T20:36:06.845Z,31.75
2023-04-28T20:38:33.428Z,25.50
2023-04-28T20:40:59.961Z,19.30
2023-04-28T20:43:26.671Z,30.25
2023-04-28T20:45:53.129Z,27.67
2023-04-28T20:48:19.647Z,29.75
2023-04-28T20:50:48.522Z,30.90
2023-04-28T20:53:14.987Z,31.73
2023-04-28T20:55:41.504Z,31.38
2023-04-28T20:58:08.069Z,27.55
2023-04-28T21:00:38.160Z,13.77
2023-04-28T21:03:05.134Z,25.83
2023-04-28T21:05:31.841Z,27.88
2023-04-28T21:07:58.412Z,30.08
2023-04-28T21:10:24.856Z,25.92
2023-04-28T21:12:51.323Z,28.73
2023-04-28T21:15:17.834Z,26.10
2023-04-28T21:17:44.373Z,22.33
2023-04-28T21:20:11.751Z,25.40
2023-04-28T21:22:38.287Z,25.42
2023-04-28T21:25:05.790Z,25.15
2023-04-28T21:27:32.614Z,20.25
2023-04-28T21:29:59.186Z,22.77
2023-04-28T21:32:26.582Z,14.60
2023-04-28T21:34:53.176Z,14.02
2023-04-28T21:37:19.687Z,21.95
2023-04-28T21:39:46.156Z,21.88
2023-04-28T21:42:12.935Z,24.77
2023-04-28T21:44:39.416Z,16.67
2023-04-28T21:47:06.733Z,22.88
2023-04-28T21:49:33.219Z,21.90
2023-04-28T21:51:59.745Z,24.40
2023-04-28T21:54:26.220Z,18.67
2023-04-28T21:56:52.735Z,22.88
2023-04-28T21:59:19.206Z,21.23
2023-04-28T22:01:45.975Z,23.63
2023-04-28T22:04:12.886Z,25.60
2023-04-28T22:06:39.640Z,22.98
2023-04-28T22:09:07.064Z,23.67
2023-04-28T22:11:33.866Z,20.25
2023-04-28T22:14:00.852Z,21.70
2023-04-28T22:16:28.015Z,25.60
2023-04-28T22:18:54.503Z,24.88
2023-04-28T22:21:21.191Z,25.27
2023-04-28T22:23:47.671Z,25.42
2023-04-28T22:26:14.905Z,28.98
2023-04-28T22:28:41.733Z,29.90
2023-04-28T22:31:08.341Z,28.38
2023-04-28T22:33:35.361Z,31.20
2023-04-28T22:36:02.249Z,30.50
2023-04-28T22:38:28.710Z,32.13
2023-04-28T22:40:55.276Z,29.75
2023-04-28T22:43:21.775Z,29.13
2023-04-28T22:45:48.236Z,28.50
2023-04-28T22:48:14.686Z,26.63
2023-04-28T22:50:41.145Z,29.02
2023-04-28T22:53:08.122Z,29.00
2023-04-28T22:55:34.577Z,30.23
2023-04-28T22:58:01.140Z,28.17
2023-04-28T23:00:27.690Z,32.28
2023-04-28T23:02:54.249Z,32.15
2023-04-28T23:05:20.912Z,34.50
2023-04-28T23:07:47.372Z,32.80
2023-04-28T23:10:14.669Z,30.73
2023-04-28T23:12:41.380Z,34.55
2023-04-28T23:15:08.183Z,33.88
2023-04-28T23:17:34.744Z,36.35
2023-04-28T23:20:01.216Z,33.33
2023-04-28T23:22:27.740Z,36.40
2023-04-28T23:24:54.220Z,36.45
2023-04-28T23:27:20.744Z,40.17
2023-04-28T23:29:47.222Z,34.42
2023-04-28T23:32:13.718Z,36.05
2023-04-28T23:34:42.161Z,38.67
2023-04-28T23:37:08.829Z,40.47
2023-04-28T23:39:35.354Z,40.90
2023-04-28T23:42:02.335Z,41.53
2023-04-28T23:44:28.809Z,46.05
2023-04-28T23:46:56.360Z,41.85
2023-04-28T23:49:23.767Z,39.50
2023-04-28T23:51:50.268Z,44.58
2023-04-28T23:54:16.932Z,40.45
2023-04-28T23:56:43.388Z,42.72
2023-04-28T23:59:09.837Z,41.33
